Terminal Aerodrome Forecast
Issued by NWS

Home | Current Version | Previous Version | Text Only | Print | Product List | Glossary Off
Versions: 1 2 3 4 5 6 7 8 9 10 11 12 13 14 15 16 17 18 19 20 21 22 23 24 25 26 27 28 29 30 31 32 33 34 35 36 37 38 39

000
FTUS43 KGRB 021131 CCA
TAFRHI
TAF COR
KRHI 021131Z 0212/0312 00000KT 1SM BR SCT015 BKN120
      TEMPO 0212/0213 1/4SM FG BKN002
     FM021400 19004KT P6SM SCT020 BKN100
      TEMPO 0214/0216 3SM -SHRA BKN020
     FM021600 19004KT 4SM -SHRA BKN040
      TEMPO 0216/0220 5SM -SHRA BR BKN020
     FM022000 16003KT 5SM -SHRA BR BKN020
      TEMPO 0222/0302 4SM -TSRA BR BKN015CB
     FM030200 VRB03KT 3SM BR VCSH BKN015
      TEMPO 0308/0312 1SM BR BKN005=

USA.gov is the U.S. government's official web portal to all federal, state and local government web resources and services.